createdAt,value
2018-11-25T06:12:16.645Z,14.90
2018-11-25T06:14:45.415Z,16.50
2018-11-25T06:17:14.144Z,16.70
2018-11-25T06:19:43.381Z,16.90
2018-11-25T06:22:12.533Z,17.10
2018-11-25T06:24:41.702Z,17.30
2018-11-25T06:27:11.134Z,17.50
2018-11-25T06:29:40.399Z,17.60
2018-11-25T06:32:09.223Z,17.80
2018-11-25T06:34:38.334Z,18.00
2018-11-25T06:37:07.070Z,18.10
2018-11-25T06:39:36.150Z,18.30
2018-11-25T06:42:04.876Z,18.40
2018-11-25T06:47:02.391Z,18.70
2018-11-25T06:49:31.898Z,18.80
2018-11-25T06:52:01.545Z,18.90
2018-11-25T06:54:30.839Z,19.00
2018-11-25T06:57:00.347Z,19.10
2018-11-25T06:59:29.975Z,19.30
2018-11-25T07:01:59.373Z,19.40
2018-11-25T07:04:28.080Z,19.50
2018-11-25T07:06:57.217Z,19.60
2018-11-25T07:09:26.042Z,19.60
2018-11-25T07:11:55.183Z,19.80
2018-11-25T07:14:24.354Z,19.80
2018-11-25T07:16:53.506Z,19.90
2018-11-25T07:19:22.701Z,20.00
2018-11-25T07:21:51.508Z,20.00
2018-11-25T07:24:20.524Z,20.10
2018-11-25T07:26:49.619Z,20.10
2018-11-25T07:29:18.796Z,20.10
2018-11-25T07:31:47.510Z,20.10
2018-11-25T07:34:16.983Z,20.20
2018-11-25T07:36:46.138Z,20.20
2018-11-25T07:39:15.690Z,20.30
2018-11-25T07:41:45.122Z,20.40
2018-11-25T07:44:13.846Z,20.40
2018-11-25T07:46:42.971Z,20.50
2018-11-25T07:49:12.021Z,20.50
2018-11-25T07:51:42.588Z,20.60
2018-11-25T07:54:11.586Z,20.60
2018-11-25T07:59:09.795Z,20.70
2018-11-25T08:01:39.326Z,20.70
2018-11-25T08:04:08.543Z,20.80
2018-11-25T08:06:37.963Z,20.80
2018-11-25T08:09:09.986Z,20.80
2018-11-25T08:11:40.350Z,20.80
2018-11-25T08:14:11.681Z,20.80
2018-11-25T08:16:41.119Z,20.80
2018-11-25T08:19:10.571Z,20.80
2018-11-25T08:21:39.980Z,20.70
2018-11-25T08:24:09.188Z,20.70
2018-11-25T08:26:40.211Z,20.60
2018-11-25T08:29:09.759Z,20.60
2018-11-25T08:31:39.182Z,20.50
2018-11-25T08:34:09.407Z,20.50
2018-11-25T08:36:39.587Z,20.40
2018-11-25T08:39:09.634Z,20.30
2018-11-25T08:41:39.136Z,20.20
2018-11-25T08:44:08.746Z,20.20
2018-11-25T08:46:39.991Z,20.10
2018-11-25T08:51:37.950Z,20.00
2018-11-25T08:54:07.020Z,19.90
2018-11-25T08:56:36.515Z,19.90
2018-11-25T08:59:08.122Z,19.80
2018-11-25T09:01:37.130Z,19.70
2018-11-25T09:04:08.152Z,19.70
2018-11-25T09:06:37.699Z,19.60
2018-11-25T09:09:08.705Z,19.50
2018-11-25T09:11:38.122Z,19.40
2018-11-25T09:14:07.126Z,19.40
2018-11-25T09:16:37.679Z,19.30
2018-11-25T09:19:06.111Z,19.30
2018-11-25T09:21:35.499Z,19.20
2018-11-25T09:24:06.888Z,19.10
2018-11-25T09:26:35.952Z,19.10
2018-11-25T09:29:04.971Z,19.00
2018-11-25T09:31:34.706Z,18.90
2018-11-25T09:34:03.463Z,18.90
2018-11-25T09:36:33.336Z,18.80
2018-11-25T09:39:02.569Z,18.80
2018-11-25T09:41:31.548Z,18.80
2018-11-25T09:44:01.055Z,18.70
2018-11-25T09:46:30.134Z,18.60
2018-11-25T09:48:59.244Z,18.60
2018-11-25T09:51:28.703Z,18.50
2018-11-25T09:53:57.983Z,18.50
2018-11-25T09:56:27.575Z,18.50
2018-11-25T09:58:57.210Z,18.40
2018-11-25T10:01:27.476Z,18.40
2018-11-25T10:03:56.960Z,18.30
2018-11-25T10:06:26.338Z,18.30
2018-11-25T10:08:55.198Z,18.30
2018-11-25T10:11:24.291Z,18.20
2018-11-25T10:13:53.822Z,18.20
2018-11-25T10:16:24.966Z,18.20
2018-11-25T10:18:54.463Z,18.10
2018-11-25T10:21:23.147Z,18.00
2018-11-25T10:23:52.343Z,18.00
2018-11-25T10:26:21.755Z,18.00
2018-11-25T10:28:51.335Z,18.00
2018-11-25T10:31:21.751Z,17.90
2018-11-25T10:33:51.022Z,17.90
2018-11-25T10:36:20.442Z,17.90
2018-11-25T10:38:49.881Z,17.90
2018-11-25T10:41:19.362Z,17.80
2018-11-25T10:43:48.887Z,17.80
2018-11-25T10:46:19.149Z,17.80
2018-11-25T10:48:48.259Z,17.80
2018-11-25T10:51:17.821Z,17.70
2018-11-25T10:56:16.816Z,17.70
2018-11-25T10:58:45.574Z,17.70
2018-11-25T11:01:19.915Z,17.60
2018-11-25T11:03:56.360Z,17.60
2018-11-25T11:06:33.053Z,17.60
2018-11-25T11:09:02.162Z,17.60
2018-11-25T11:11:31.632Z,17.60
2018-11-25T11:14:01.814Z,17.50
2018-11-25T11:16:31.588Z,17.50
2018-11-25T11:19:01.240Z,17.50
2018-11-25T11:21:30.210Z,17.50
2018-11-25T11:23:59.623Z,17.40
2018-11-25T11:26:29.027Z,17.40
2018-11-25T11:28:58.566Z,17.40
2018-11-25T11:31:28.058Z,17.40
2018-11-25T11:33:57.787Z,17.40
2018-11-25T11:36:27.279Z,17.40
2018-11-25T11:38:56.677Z,17.40
2018-11-25T11:41:26.234Z,17.30
2018-11-25T11:43:55.394Z,17.30
2018-11-25T11:46:24.910Z,17.30
2018-11-25T11:48:55.310Z,17.30
2018-11-25T11:51:25.870Z,17.30
2018-11-25T11:53:53.935Z,17.30
2018-11-25T11:56:23.463Z,17.30
2018-11-25T11:58:52.319Z,17.20
2018-11-25T12:01:21.918Z,17.20
2018-11-25T12:03:51.575Z,17.20
2018-11-25T12:06:20.967Z,17.20
2018-11-25T12:08:50.456Z,17.20
2018-11-25T12:11:19.951Z,17.20
2018-11-25T12:13:49.564Z,17.20
2018-11-25T12:16:18.727Z,17.10
2018-11-25T12:18:48.203Z,17.20
2018-11-25T12:21:17.610Z,17.10
2018-11-25T12:23:46.674Z,17.10
2018-11-25T12:28:44.324Z,17.10
2018-11-25T12:31:13.362Z,17.10
2018-11-25T12:33:42.710Z,17.10
2018-11-25T12:36:12.205Z,17.10
2018-11-25T12:38:41.764Z,17.10
2018-11-25T12:41:10.759Z,17.10
2018-11-25T12:43:40.218Z,17.00
2018-11-25T12:46:09.209Z,17.10
2018-11-25T12:48:38.607Z,17.10
2018-11-25T12:51:08.012Z,17.10
2018-11-25T12:53:37.206Z,17.10
2018-11-25T12:58:35.599Z,17.10
2018-11-25T13:01:05.171Z,17.10
2018-11-25T13:03:36.334Z,17.10
2018-11-25T13:06:05.795Z,17.10
2018-11-25T13:08:35.571Z,17.10
2018-11-25T13:11:05.678Z,17.10
2018-11-25T13:13:35.098Z,17.20
2018-11-25T13:16:05.060Z,17.20
2018-11-25T13:18:35.763Z,17.20
2018-11-25T13:21:03.858Z,17.20
2018-11-25T13:23:33.507Z,17.20
2018-11-25T13:26:04.491Z,17.30
2018-11-25T13:28:33.886Z,17.30
2018-11-25T13:31:03.930Z,17.30
2018-11-25T13:33:32.660Z,17.30
2018-11-25T13:36:02.074Z,17.30
2018-11-25T13:38:31.617Z,17.40
2018-11-25T13:41:01.024Z,17.40
2018-11-25T13:43:30.110Z,17.40
2018-11-25T13:45:59.695Z,17.40
2018-11-25T13:48:29.153Z,17.40
2018-11-25T13:51:09.414Z,17.40
2018-11-25T13:53:39.172Z,17.40
2018-11-25T13:56:08.390Z,17.40
2018-11-25T13:58:38.482Z,17.50
2018-11-25T14:01:07.437Z,17.50
2018-11-25T14:03:39.382Z,17.50
2018-11-25T14:06:13.136Z,17.50
2018-11-25T14:08:42.903Z,17.50
2018-11-25T14:11:14.728Z,17.60
2018-11-25T14:13:44.295Z,17.60
2018-11-25T14:16:20.091Z,17.60
2018-11-25T14:18:50.538Z,17.60
2018-11-25T14:21:20.862Z,17.60
2018-11-25T14:23:50.399Z,17.70
2018-11-25T14:26:23.429Z,17.70
2018-11-25T14:28:52.408Z,17.70
2018-11-25T14:31:21.967Z,17.70
2018-11-25T14:33:51.130Z,17.70
2018-11-25T14:36:21.371Z,17.80
2018-11-25T14:38:50.812Z,17.70
2018-11-25T14:41:19.983Z,17.80
2018-11-25T14:43:49.546Z,17.80
2018-11-25T14:46:19.182Z,17.80
2018-11-25T14:48:48.374Z,17.80
2018-11-25T14:51:18.992Z,17.80
2018-11-25T14:53:48.679Z,17.80
2018-11-25T14:56:19.275Z,17.80
2018-11-25T14:58:48.771Z,17.80
2018-11-25T15:01:19.211Z,17.80
2018-11-25T15:03:49.732Z,17.80
2018-11-25T15:06:19.205Z,17.80
2018-11-25T15:08:49.046Z,17.80
2018-11-25T15:11:18.222Z,17.90
2018-11-25T15:16:16.746Z,17.90
2018-11-25T15:18:46.326Z,17.90
2018-11-25T15:21:16.024Z,17.90
2018-11-25T15:23:45.550Z,17.90
2018-11-25T15:26:17.091Z,17.90
2018-11-25T15:28:46.327Z,17.90
2018-11-25T15:31:15.945Z,18.00
2018-11-25T15:33:45.043Z,18.00
2018-11-25T15:36:14.499Z,18.00
2018-11-25T15:38:43.631Z,18.00
2018-11-25T15:41:13.102Z,18.00
2018-11-25T15:43:43.463Z,18.10
2018-11-25T15:46:12.975Z,18.10
2018-11-25T15:48:41.761Z,18.10
2018-11-25T15:51:11.363Z,18.10
2018-11-25T15:53:40.942Z,18.10
2018-11-25T15:56:10.471Z,18.10
2018-11-25T15:58:41.017Z,18.00
2018-11-25T16:01:10.762Z,18.10
2018-11-25T16:03:41.075Z,18.00
2018-11-25T16:06:15.535Z,18.00
2018-11-25T16:08:44.601Z,18.00
2018-11-25T16:11:13.713Z,18.00
2018-11-25T16:13:44.176Z,18.00
2018-11-25T16:16:13.678Z,18.00
2018-11-25T16:18:42.744Z,17.90
2018-11-25T16:21:12.147Z,17.90
2018-11-25T16:23:41.996Z,17.90
2018-11-25T16:26:17.582Z,17.90
2018-11-25T16:31:16.640Z,17.90
2018-11-25T16:33:46.465Z,17.80
2018-11-25T16:36:15.558Z,17.80
2018-11-25T16:38:44.985Z,17.80
2018-11-25T16:43:44.747Z,17.70
2018-11-25T16:46:14.181Z,17.70
2018-11-25T16:48:43.608Z,17.70
2018-11-25T16:51:12.740Z,17.70
2018-11-25T16:53:42.859Z,17.70
2018-11-25T16:56:11.979Z,17.70
2018-11-25T16:58:41.422Z,17.60
2018-11-25T17:01:10.955Z,17.60
2018-11-25T17:03:40.418Z,17.60
2018-11-25T17:06:10.135Z,17.60
2018-11-25T17:08:40.882Z,17.50
2018-11-25T17:11:11.601Z,17.50
2018-11-25T17:13:41.731Z,17.50
2018-11-25T17:16:11.293Z,17.50
2018-11-25T17:18:42.838Z,17.50
2018-11-25T17:21:12.088Z,17.40
2018-11-25T17:28:38.600Z,17.40
2018-11-25T17:31:07.747Z,17.30
2018-11-25T17:33:37.231Z,17.30
2018-11-25T17:36:06.358Z,17.30
2018-11-25T17:38:36.125Z,17.30
2018-11-25T17:41:05.894Z,17.30
2018-11-25T17:43:35.415Z,17.30
2018-11-25T17:46:04.202Z,17.20
2018-11-25T17:48:34.113Z,17.20
2018-11-25T17:51:04.131Z,17.20
2018-11-25T17:53:33.679Z,17.20
2018-11-25T17:56:03.018Z,17.20
2018-11-25T17:58:33.404Z,17.20
2018-11-25T18:01:05.016Z,17.10
2018-11-25T18:03:35.630Z,17.10
2018-11-25T18:06:04.791Z,17.10
2018-11-25T18:08:35.753Z,17.10
2018-11-25T18:11:05.385Z,17.10
2018-11-25T18:13:37.891Z,17.10
2018-11-25T18:18:50.274Z,17.10
2018-11-25T18:21:24.237Z,17.10
2018-11-25T18:23:54.847Z,17.10
2018-11-25T18:26:24.421Z,17.10
2018-11-25T18:28:53.839Z,17.10
2018-11-25T18:31:23.277Z,17.10
2018-11-25T18:33:52.727Z,17.00
2018-11-25T18:36:22.243Z,17.00
2018-11-25T18:38:51.477Z,17.00
2018-11-25T18:41:21.868Z,17.00
2018-11-25T18:43:50.051Z,17.00
2018-11-25T18:46:21.182Z,17.00
2018-11-25T18:48:51.441Z,17.00
2018-11-25T18:51:20.902Z,17.00
2018-11-25T18:53:50.098Z,17.00
2018-11-25T18:56:19.591Z,17.00
2018-11-25T18:58:49.019Z,16.90
2018-11-25T19:01:25.298Z,16.90
2018-11-25T19:03:54.555Z,16.90
2018-11-25T19:06:24.404Z,16.90
2018-11-25T19:11:23.502Z,16.90
2018-11-25T19:13:52.694Z,16.90
2018-11-25T19:16:22.093Z,16.90
2018-11-25T19:18:52.010Z,16.90
2018-11-25T19:21:20.938Z,16.90
2018-11-25T19:23:54.809Z,16.90
2018-11-25T19:26:24.213Z,16.90
2018-11-25T19:28:54.537Z,16.90
2018-11-25T19:31:23.940Z,16.90
2018-11-25T19:33:55.084Z,16.90
2018-11-25T19:36:24.955Z,16.90
2018-11-25T19:38:54.398Z,16.90
2018-11-25T19:41:24.067Z,16.90
2018-11-25T19:43:53.822Z,16.90
2018-11-25T19:46:23.673Z,16.90
2018-11-25T19:48:53.812Z,16.90
2018-11-25T19:51:23.359Z,16.90
2018-11-25T19:53:53.211Z,16.80
2018-11-25T19:56:22.493Z,16.90
2018-11-25T19:58:57.199Z,16.80
2018-11-25T20:01:27.304Z,16.80
2018-11-25T20:03:56.943Z,16.80
2018-11-25T20:06:29.816Z,16.80
2018-11-25T20:08:59.682Z,16.90
2018-11-25T20:11:29.315Z,16.90
2018-11-25T20:13:58.898Z,16.90
2018-11-25T20:16:33.675Z,16.90
2018-11-25T20:19:03.186Z,16.90
2018-11-25T20:21:37.950Z,16.90
2018-11-25T20:24:07.843Z,16.90
2018-11-25T20:26:37.585Z,16.90
2018-11-25T20:29:07.640Z,16.90
2018-11-25T20:31:37.413Z,16.90
2018-11-25T20:34:08.781Z,16.90
2018-11-25T20:36:40.579Z,16.90
2018-11-25T20:39:16.722Z,16.90
2018-11-25T20:41:52.591Z,16.90
2018-11-25T20:44:22.709Z,17.00
2018-11-25T20:47:01.847Z,17.00
2018-11-25T20:49:31.227Z,17.00
2018-11-25T20:52:06.628Z,16.90
2018-11-25T20:54:37.481Z,16.90
2018-11-25T20:57:06.662Z,16.90
2018-11-25T20:59:36.146Z,16.90
2018-11-25T21:02:05.942Z,16.90
2018-11-25T21:04:36.883Z,16.90
2018-11-25T21:07:06.574Z,16.90
2018-11-25T21:09:36.289Z,16.90
2018-11-25T21:12:05.692Z,16.90
2018-11-25T21:14:35.602Z,16.90
2018-11-25T21:17:05.434Z,16.90
2018-11-25T21:19:34.939Z,16.90
2018-11-25T21:22:04.748Z,16.90
2018-11-25T21:24:34.765Z,16.80
2018-11-25T21:27:06.488Z,16.80
2018-11-25T21:29:36.380Z,16.80
2018-11-25T21:32:06.558Z,16.80
2018-11-25T21:34:36.235Z,16.80
2018-11-25T21:37:06.158Z,16.80
2018-11-25T21:39:36.710Z,16.70
2018-11-25T21:42:07.754Z,16.70
2018-11-25T21:44:37.573Z,16.70
2018-11-25T21:47:09.840Z,16.70
2018-11-25T21:49:40.062Z,16.70
2018-11-25T21:52:15.914Z,16.70
2018-11-25T21:54:45.751Z,16.70
